sensor_id;sensor_type;location;lat;lon;timestamp;temperature;humidity
15717;DHT22;7960;50.908;4.204;2023-05-07T00:00:46;16.50;99.90
15717;DHT22;7960;50.908;4.204;2023-05-07T00:03:15;16.50;99.90
15717;DHT22;7960;50.908;4.204;2023-05-07T00:05:42;16.50;99.90
15717;DHT22;7960;50.908;4.204;2023-05-07T00:08:08;16.50;99.90
15717;DHT22;7960;50.908;4.204;2023-05-07T00:10:35;16.50;99.90
15717;DHT22;7960;50.908;4.204;2023-05-07T00:13:02;16.50;99.90
15717;DHT22;7960;50.908;4.204;2023-05-07T00:15:29;16.40;99.90
15717;DHT22;7960;50.908;4.204;2023-05-07T00:17:56;16.40;99.90
15717;DHT22;7960;50.908;4.204;2023-05-07T00:20:26;16.40;99.90
15717;DHT22;7960;50.908;4.204;2023-05-07T00:22:53;16.40;99.90
15717;DHT22;7960;50.908;4.204;2023-05-07T00:25:20;16.40;99.90
15717;DHT22;7960;50.908;4.204;2023-05-07T00:27:47;16.50;99.90
15717;DHT22;7960;50.908;4.204;2023-05-07T00:30:14;16.50;99.90
15717;DHT22;7960;50.908;4.204;2023-05-07T00:32:41;16.60;99.90
15717;DHT22;7960;50.908;4.204;2023-05-07T00:35:11;16.50;99.90
15717;DHT22;7960;50.908;4.204;2023-05-07T00:37:39;16.60;99.90
15717;DHT22;7960;50.908;4.204;2023-05-07T00:40:07;16.50;99.90
15717;DHT22;7960;50.908;4.204;2023-05-07T00:42:34;16.60;99.90
15717;DHT22;7960;50.908;4.204;2023-05-07T00:45:01;16.60;99.90
15717;DHT22;7960;50.908;4.204;2023-05-07T00:47:28;16.60;99.90
15717;DHT22;7960;50.908;4.204;2023-05-07T00:49:57;16.60;99.90
15717;DHT22;7960;50.908;4.204;2023-05-07T00:52:25;16.50;99.90
15717;DHT22;7960;50.908;4.204;2023-05-07T00:54:54;16.50;99.90
15717;DHT22;7960;50.908;4.204;2023-05-07T00:57:21;16.50;99.90
15717;DHT22;7960;50.908;4.204;2023-05-07T00:59:51;16.50;99.90
15717;DHT22;7960;50.908;4.204;2023-05-07T01:02:18;16.50;99.90
15717;DHT22;7960;50.908;4.204;2023-05-07T01:04:45;16.40;99.90
15717;DHT22;7960;50.908;4.204;2023-05-07T01:07:12;16.40;99.90
15717;DHT22;7960;50.908;4.204;2023-05-07T01:09:40;16.40;99.90
15717;DHT22;7960;50.908;4.204;2023-05-07T01:12:08;16.40;99.90
15717;DHT22;7960;50.908;4.204;2023-05-07T01:14:35;16.40;99.90
15717;DHT22;7960;50.908;4.204;2023-05-07T01:17:02;16.30;99.90
15717;DHT22;7960;50.908;4.204;2023-05-07T01:19:30;16.30;99.90
15717;DHT22;7960;50.908;4.204;2023-05-07T01:22:02;16.30;99.90
15717;DHT22;7960;50.908;4.204;2023-05-07T01:24:32;16.30;99.90
15717;DHT22;7960;50.908;4.204;2023-05-07T01:26:59;16.30;99.90
15717;DHT22;7960;50.908;4.204;2023-05-07T01:29:27;16.40;99.90
15717;DHT22;7960;50.908;4.204;2023-05-07T01:31:57;16.30;99.90
15717;DHT22;7960;50.908;4.204;2023-05-07T01:34:25;16.30;99.90
15717;DHT22;7960;50.908;4.204;2023-05-07T01:36:54;16.40;99.90
15717;DHT22;7960;50.908;4.204;2023-05-07T01:39:24;16.30;99.90
15717;DHT22;7960;50.908;4.204;2023-05-07T01:41:54;16.20;99.90
15717;DHT22;7960;50.908;4.204;2023-05-07T01:44:21;16.10;99.90
15717;DHT22;7960;50.908;4.204;2023-05-07T01:46:49;16.00;99.90
15717;DHT22;7960;50.908;4.204;2023-05-07T01:49:16;16.00;99.90
15717;DHT22;7960;50.908;4.204;2023-05-07T01:51:43;16.00;99.90
15717;DHT22;7960;50.908;4.204;2023-05-07T01:54:10;16.00;99.90
15717;DHT22;7960;50.908;4.204;2023-05-07T01:56:37;16.00;99.90
15717;DHT22;7960;50.908;4.204;2023-05-07T01:59:06;16.00;99.90
15717;DHT22;7960;50.908;4.204;2023-05-07T02:01:33;16.00;99.90
15717;DHT22;7960;50.908;4.204;2023-05-07T02:04:00;16.20;99.90
15717;DHT22;7960;50.908;4.204;2023-05-07T02:06:26;16.40;99.90
15717;DHT22;7960;50.908;4.204;2023-05-07T02:08:53;16.40;99.90
15717;DHT22;7960;50.908;4.204;2023-05-07T02:11:20;16.50;99.90
15717;DHT22;7960;50.908;4.204;2023-05-07T02:13:47;16.50;99.90
15717;DHT22;7960;50.908;4.204;2023-05-07T02:16:15;16.30;99.90
15717;DHT22;7960;50.908;4.204;2023-05-07T02:18:43;16.20;99.90
15717;DHT22;7960;50.908;4.204;2023-05-07T02:21:09;16.20;99.90
15717;DHT22;7960;50.908;4.204;2023-05-07T02:23:36;16.20;99.90
15717;DHT22;7960;50.908;4.204;2023-05-07T02:26:04;16.10;99.90
15717;DHT22;7960;50.908;4.204;2023-05-07T02:28:31;16.20;99.90
15717;DHT22;7960;50.908;4.204;2023-05-07T02:30:58;16.20;99.90
15717;DHT22;7960;50.908;4.204;2023-05-07T02:33:27;16.10;99.90
15717;DHT22;7960;50.908;4.204;2023-05-07T02:35:54;16.10;99.90
15717;DHT22;7960;50.908;4.204;2023-05-07T02:38:22;15.90;99.90
15717;DHT22;7960;50.908;4.204;2023-05-07T02:40:49;15.90;99.90
15717;DHT22;7960;50.908;4.204;2023-05-07T02:43:16;15.90;99.90
15717;DHT22;7960;50.908;4.204;2023-05-07T02:45:43;15.80;99.90
15717;DHT22;7960;50.908;4.204;2023-05-07T02:48:09;15.80;99.90
15717;DHT22;7960;50.908;4.204;2023-05-07T02:50:39;15.90;99.90
15717;DHT22;7960;50.908;4.204;2023-05-07T02:53:06;15.90;99.90
15717;DHT22;7960;50.908;4.204;2023-05-07T02:55:33;16.00;99.90
15717;DHT22;7960;50.908;4.204;2023-05-07T02:58:00;16.00;99.90
15717;DHT22;7960;50.908;4.204;2023-05-07T03:00:26;16.00;99.90
15717;DHT22;7960;50.908;4.204;2023-05-07T03:02:53;16.00;99.90
15717;DHT22;7960;50.908;4.204;2023-05-07T03:05:21;15.90;99.90
15717;DHT22;7960;50.908;4.204;2023-05-07T03:07:49;15.90;99.90
15717;DHT22;7960;50.908;4.204;2023-05-07T03:10:16;16.00;99.90
15717;DHT22;7960;50.908;4.204;2023-05-07T03:12:44;16.10;99.90
15717;DHT22;7960;50.908;4.204;2023-05-07T03:15:10;16.20;99.90
15717;DHT22;7960;50.908;4.204;2023-05-07T03:17:38;16.30;99.90
15717;DHT22;7960;50.908;4.204;2023-05-07T03:20:06;16.30;99.90
15717;DHT22;7960;50.908;4.204;2023-05-07T03:22:33;16.20;99.90
15717;DHT22;7960;50.908;4.204;2023-05-07T03:25:02;16.20;99.90
15717;DHT22;7960;50.908;4.204;2023-05-07T03:27:29;16.20;99.90
15717;DHT22;7960;50.908;4.204;2023-05-07T03:29:56;16.20;99.90
15717;DHT22;7960;50.908;4.204;2023-05-07T03:32:22;16.00;99.90
15717;DHT22;7960;50.908;4.204;2023-05-07T03:34:49;15.90;99.90
15717;DHT22;7960;50.908;4.204;2023-05-07T03:37:17;15.80;99.90
15717;DHT22;7960;50.908;4.204;2023-05-07T03:39:44;15.70;99.90
15717;DHT22;7960;50.908;4.204;2023-05-07T03:42:14;15.70;99.90
15717;DHT22;7960;50.908;4.204;2023-05-07T03:44:41;15.60;99.90
15717;DHT22;7960;50.908;4.204;2023-05-07T03:47:08;15.60;99.90
15717;DHT22;7960;50.908;4.204;2023-05-07T03:49:35;15.50;99.90
15717;DHT22;7960;50.908;4.204;2023-05-07T03:52:02;15.60;99.90
15717;DHT22;7960;50.908;4.204;2023-05-07T03:54:30;15.70;99.90
15717;DHT22;7960;50.908;4.204;2023-05-07T03:56:57;15.80;99.90
15717;DHT22;7960;50.908;4.204;2023-05-07T03:59:25;16.00;99.90
15717;DHT22;7960;50.908;4.204;2023-05-07T04:01:52;16.10;99.90
15717;DHT22;7960;50.908;4.204;2023-05-07T04:04:19;16.20;99.90
15717;DHT22;7960;50.908;4.204;2023-05-07T04:06:46;16.10;99.90
15717;DHT22;7960;50.908;4.204;2023-05-07T04:09:13;15.80;99.90
15717;DHT22;7960;50.908;4.204;2023-05-07T04:11:40;15.70;99.90
15717;DHT22;7960;50.908;4.204;2023-05-07T04:14:07;15.60;99.90
15717;DHT22;7960;50.908;4.204;2023-05-07T04:16:36;15.70;99.90
15717;DHT22;7960;50.908;4.204;2023-05-07T04:19:03;15.70;99.90
15717;DHT22;7960;50.908;4.204;2023-05-07T04:21:29;15.80;99.90
15717;DHT22;7960;50.908;4.204;2023-05-07T04:23:56;15.90;99.90
15717;DHT22;7960;50.908;4.204;2023-05-07T04:26:23;16.00;99.90
15717;DHT22;7960;50.908;4.204;2023-05-07T04:28:50;15.90;99.90
15717;DHT22;7960;50.908;4.204;2023-05-07T04:31:17;15.90;99.90
15717;DHT22;7960;50.908;4.204;2023-05-07T04:33:46;16.00;99.90
15717;DHT22;7960;50.908;4.204;2023-05-07T04:36:13;15.90;99.90
15717;DHT22;7960;50.908;4.204;2023-05-07T04:38:41;16.00;99.90
15717;DHT22;7960;50.908;4.204;2023-05-07T04:41:09;16.10;99.90
15717;DHT22;7960;50.908;4.204;2023-05-07T04:43:35;16.10;99.90
15717;DHT22;7960;50.908;4.204;2023-05-07T04:46:02;16.10;99.90
15717;DHT22;7960;50.908;4.204;2023-05-07T04:48:30;16.10;99.90
15717;DHT22;7960;50.908;4.204;2023-05-07T04:50:58;16.10;99.90
15717;DHT22;7960;50.908;4.204;2023-05-07T04:53:25;16.10;99.90
15717;DHT22;7960;50.908;4.204;2023-05-07T04:55:55;16.10;99.90
15717;DHT22;7960;50.908;4.204;2023-05-07T04:58:22;16.00;99.90
15717;DHT22;7960;50.908;4.204;2023-05-07T05:00:49;16.10;99.90
15717;DHT22;7960;50.908;4.204;2023-05-07T05:03:16;16.10;99.90
15717;DHT22;7960;50.908;4.204;2023-05-07T05:05:43;16.20;99.90
15717;DHT22;7960;50.908;4.204;2023-05-07T05:08:12;16.20;99.90
15717;DHT22;7960;50.908;4.204;2023-05-07T05:10:39;16.20;99.90
15717;DHT22;7960;50.908;4.204;2023-05-07T05:13:07;16.20;99.90
15717;DHT22;7960;50.908;4.204;2023-05-07T05:15:33;16.20;99.90
15717;DHT22;7960;50.908;4.204;2023-05-07T05:18:00;16.20;99.90
15717;DHT22;7960;50.908;4.204;2023-05-07T05:20:27;16.20;99.90
15717;DHT22;7960;50.908;4.204;2023-05-07T05:22:55;16.20;99.90
15717;DHT22;7960;50.908;4.204;2023-05-07T05:25:23;16.30;99.90
15717;DHT22;7960;50.908;4.204;2023-05-07T05:27:50;16.40;99.90
15717;DHT22;7960;50.908;4.204;2023-05-07T05:30:17;16.30;99.90
15717;DHT22;7960;50.908;4.204;2023-05-07T05:32:44;16.50;99.90
15717;DHT22;7960;50.908;4.204;2023-05-07T05:35:11;16.50;99.90
15717;DHT22;7960;50.908;4.204;2023-05-07T05:37:37;16.70;99.90
15717;DHT22;7960;50.908;4.204;2023-05-07T05:40:05;16.80;99.90
15717;DHT22;7960;50.908;4.204;2023-05-07T05:42:34;16.80;99.90
15717;DHT22;7960;50.908;4.204;2023-05-07T05:45:01;16.70;99.90
15717;DHT22;7960;50.908;4.204;2023-05-07T05:47:28;16.90;99.90
15717;DHT22;7960;50.908;4.204;2023-05-07T05:49:55;16.80;99.90
15717;DHT22;7960;50.908;4.204;2023-05-07T05:52:21;16.60;99.90
15717;DHT22;7960;50.908;4.204;2023-05-07T05:54:49;16.60;99.90
15717;DHT22;7960;50.908;4.204;2023-05-07T05:57:16;16.40;99.90
15717;DHT22;7960;50.908;4.204;2023-05-07T05:59:44;16.40;99.90
15717;DHT22;7960;50.908;4.204;2023-05-07T06:02:13;16.40;99.90
15717;DHT22;7960;50.908;4.204;2023-05-07T06:04:40;16.40;99.90
15717;DHT22;7960;50.908;4.204;2023-05-07T06:07:08;16.40;99.90
15717;DHT22;7960;50.908;4.204;2023-05-07T06:09:34;16.30;99.90
15717;DHT22;7960;50.908;4.204;2023-05-07T06:12:01;16.20;99.90
15717;DHT22;7960;50.908;4.204;2023-05-07T06:14:28;16.10;99.90
15717;DHT22;7960;50.908;4.204;2023-05-07T06:16:57;16.00;99.90
15717;DHT22;7960;50.908;4.204;2023-05-07T06:19:24;16.00;99.90
15717;DHT22;7960;50.908;4.204;2023-05-07T06:21:52;16.00;99.90
15717;DHT22;7960;50.908;4.204;2023-05-07T06:24:19;16.00;99.90
15717;DHT22;7960;50.908;4.204;2023-05-07T06:26:45;16.00;99.90
15717;DHT22;7960;50.908;4.204;2023-05-07T06:29:12;16.00;99.90
15717;DHT22;7960;50.908;4.204;2023-05-07T06:31:39;15.90;99.90
15717;DHT22;7960;50.908;4.204;2023-05-07T06:34:08;15.90;99.90
15717;DHT22;7960;50.908;4.204;2023-05-07T06:36:35;15.90;99.90
15717;DHT22;7960;50.908;4.204;2023-05-07T06:39:02;15.80;99.90
15717;DHT22;7960;50.908;4.204;2023-05-07T06:41:29;15.80;99.90
15717;DHT22;7960;50.908;4.204;2023-05-07T06:43:56;15.80;99.90
15717;DHT22;7960;50.908;4.204;2023-05-07T06:46:23;15.70;99.90
15717;DHT22;7960;50.908;4.204;2023-05-07T06:48:50;15.60;99.90
15717;DHT22;7960;50.908;4.204;2023-05-07T06:51:19;15.60;99.90
15717;DHT22;7960;50.908;4.204;2023-05-07T06:53:46;15.70;99.90
15717;DHT22;7960;50.908;4.204;2023-05-07T06:56:12;15.60;99.90
15717;DHT22;7960;50.908;4.204;2023-05-07T06:58:39;15.70;99.90
15717;DHT22;7960;50.908;4.204;2023-05-07T07:01:06;15.60;99.90
15717;DHT22;7960;50.908;4.204;2023-05-07T07:03:33;15.70;99.90
15717;DHT22;7960;50.908;4.204;2023-05-07T07:06:00;15.60;99.90
15717;DHT22;7960;50.908;4.204;2023-05-07T07:08:29;15.70;99.90
15717;DHT22;7960;50.908;4.204;2023-05-07T07:10:56;15.80;99.90
15717;DHT22;7960;50.908;4.204;2023-05-07T07:13:23;15.80;99.90
15717;DHT22;7960;50.908;4.204;2023-05-07T07:15:51;15.80;99.90
15717;DHT22;7960;50.908;4.204;2023-05-07T07:18:18;15.80;99.90
15717;DHT22;7960;50.908;4.204;2023-05-07T07:20:45;15.90;99.90
15717;DHT22;7960;50.908;4.204;2023-05-07T07:23:12;15.90;99.90
15717;DHT22;7960;50.908;4.204;2023-05-07T07:25:40;16.00;99.90
15717;DHT22;7960;50.908;4.204;2023-05-07T07:28:07;15.70;99.90
15717;DHT22;7960;50.908;4.204;2023-05-07T07:30:34;15.80;99.90
15717;DHT22;7960;50.908;4.204;2023-05-07T07:33:01;16.00;99.90
15717;DHT22;7960;50.908;4.204;2023-05-07T07:35:28;16.00;99.90
15717;DHT22;7960;50.908;4.204;2023-05-07T07:37:55;16.00;99.90
15717;DHT22;7960;50.908;4.204;2023-05-07T07:40:23;16.00;99.90
15717;DHT22;7960;50.908;4.204;2023-05-07T07:42:53;15.90;99.90
15717;DHT22;7960;50.908;4.204;2023-05-07T07:45:20;16.00;99.90
15717;DHT22;7960;50.908;4.204;2023-05-07T07:47:47;16.10;99.90
15717;DHT22;7960;50.908;4.204;2023-05-07T07:50:14;16.20;99.90
15717;DHT22;7960;50.908;4.204;2023-05-07T07:52:41;16.20;99.90
15717;DHT22;7960;50.908;4.204;2023-05-07T07:55:08;16.30;99.90
15717;DHT22;7960;50.908;4.204;2023-05-07T07:57:35;16.20;99.90
15717;DHT22;7960;50.908;4.204;2023-05-07T08:00:05;16.30;99.90
15717;DHT22;7960;50.908;4.204;2023-05-07T08:02:32;16.10;99.90
15717;DHT22;7960;50.908;4.204;2023-05-07T08:04:59;16.00;99.90
15717;DHT22;7960;50.908;4.204;2023-05-07T08:07:26;16.10;99.90
15717;DHT22;7960;50.908;4.204;2023-05-07T08:09:53;16.10;99.90
15717;DHT22;7960;50.908;4.204;2023-05-07T08:12:20;16.20;99.90
15717;DHT22;7960;50.908;4.204;2023-05-07T08:14:47;16.20;99.90
15717;DHT22;7960;50.908;4.204;2023-05-07T08:17:15;16.30;99.90
15717;DHT22;7960;50.908;4.204;2023-05-07T08:19:42;16.30;99.90
15717;DHT22;7960;50.908;4.204;2023-05-07T08:22:09;16.40;99.90
15717;DHT22;7960;50.908;4.204;2023-05-07T08:24:36;16.50;99.90
15717;DHT22;7960;50.908;4.204;2023-05-07T08:27:03;16.40;99.90
15717;DHT22;7960;50.908;4.204;2023-05-07T08:29:30;16.40;99.90
15717;DHT22;7960;50.908;4.204;2023-05-07T08:31:57;16.40;99.90
15717;DHT22;7960;50.908;4.204;2023-05-07T08:34:25;16.30;99.90
15717;DHT22;7960;50.908;4.204;2023-05-07T08:36:52;16.20;99.90
15717;DHT22;7960;50.908;4.204;2023-05-07T08:39:19;16.10;99.90
15717;DHT22;7960;50.908;4.204;2023-05-07T08:41:48;16.10;99.90
15717;DHT22;7960;50.908;4.204;2023-05-07T08:44:16;16.00;99.90
15717;DHT22;7960;50.908;4.204;2023-05-07T08:46:47;15.80;99.90
15717;DHT22;7960;50.908;4.204;2023-05-07T08:49:15;15.70;99.90
15717;DHT22;7960;50.908;4.204;2023-05-07T08:51:43;15.70;99.90
15717;DHT22;7960;50.908;4.204;2023-05-07T08:54:11;15.70;99.90
15717;DHT22;7960;50.908;4.204;2023-05-07T08:56:38;15.80;99.90
15717;DHT22;7960;50.908;4.204;2023-05-07T08:59:06;15.80;99.90
15717;DHT22;7960;50.908;4.204;2023-05-07T09:01:33;15.60;99.90
15717;DHT22;7960;50.908;4.204;2023-05-07T09:04:01;15.70;99.90
15717;DHT22;7960;50.908;4.204;2023-05-07T09:06:28;15.80;99.90
15717;DHT22;7960;50.908;4.204;2023-05-07T09:08:56;15.80;99.90
15717;DHT22;7960;50.908;4.204;2023-05-07T09:11:26;16.00;99.90
15717;DHT22;7960;50.908;4.204;2023-05-07T09:13:54;16.10;99.90
15717;DHT22;7960;50.908;4.204;2023-05-07T09:16:22;16.00;99.90
15717;DHT22;7960;50.908;4.204;2023-05-07T09:18:51;16.00;99.90
15717;DHT22;7960;50.908;4.204;2023-05-07T09:21:19;16.00;99.90
15717;DHT22;7960;50.908;4.204;2023-05-07T09:23:48;16.10;99.90
15717;DHT22;7960;50.908;4.204;2023-05-07T09:26:17;16.00;99.90
15717;DHT22;7960;50.908;4.204;2023-05-07T09:28:44;16.10;99.90
15717;DHT22;7960;50.908;4.204;2023-05-07T09:31:12;15.90;99.90
15717;DHT22;7960;50.908;4.204;2023-05-07T09:33:39;16.00;99.90
15717;DHT22;7960;50.908;4.204;2023-05-07T09:36:07;16.20;99.90
15717;DHT22;7960;50.908;4.204;2023-05-07T09:38:36;16.10;99.90
15717;DHT22;7960;50.908;4.204;2023-05-07T09:41:05;16.30;99.90
15717;DHT22;7960;50.908;4.204;2023-05-07T09:43:34;16.10;99.90
15717;DHT22;7960;50.908;4.204;2023-05-07T09:46:03;16.10;99.90
15717;DHT22;7960;50.908;4.204;2023-05-07T09:48:38;16.00;99.90
15717;DHT22;7960;50.908;4.204;2023-05-07T09:51:11;16.00;99.90
15717;DHT22;7960;50.908;4.204;2023-05-07T09:53:42;16.00;99.90
15717;DHT22;7960;50.908;4.204;2023-05-07T09:56:13;16.10;99.90
15717;DHT22;7960;50.908;4.204;2023-05-07T09:58:42;16.20;99.90
15717;DHT22;7960;50.908;4.204;2023-05-07T10:01:11;16.10;99.90
15717;DHT22;7960;50.908;4.204;2023-05-07T10:03:40;16.20;99.90
15717;DHT22;7960;50.908;4.204;2023-05-07T10:06:08;16.40;99.90
15717;DHT22;7960;50.908;4.204;2023-05-07T10:08:36;16.30;99.90
15717;DHT22;7960;50.908;4.204;2023-05-07T10:11:04;16.30;99.90
15717;DHT22;7960;50.908;4.204;2023-05-07T10:13:32;16.20;99.90
15717;DHT22;7960;50.908;4.204;2023-05-07T10:16:03;16.40;99.90
15717;DHT22;7960;50.908;4.204;2023-05-07T10:18:30;16.30;99.90
15717;DHT22;7960;50.908;4.204;2023-05-07T10:21:02;16.40;99.90
15717;DHT22;7960;50.908;4.204;2023-05-07T10:23:32;16.60;99.90
15717;DHT22;7960;50.908;4.204;2023-05-07T10:26:01;16.60;99.90
15717;DHT22;7960;50.908;4.204;2023-05-07T10:28:32;16.70;99.90
15717;DHT22;7960;50.908;4.204;2023-05-07T10:31:13;16.60;99.90
15717;DHT22;7960;50.908;4.204;2023-05-07T10:33:43;16.70;99.90
15717;DHT22;7960;50.908;4.204;2023-05-07T10:36:11;16.50;99.90
15717;DHT22;7960;50.908;4.204;2023-05-07T10:38:39;16.50;99.90
15717;DHT22;7960;50.908;4.204;2023-05-07T10:41:06;16.40;99.90
15717;DHT22;7960;50.908;4.204;2023-05-07T10:43:40;16.20;99.90
15717;DHT22;7960;50.908;4.204;2023-05-07T10:46:15;16.10;99.90
15717;DHT22;7960;50.908;4.204;2023-05-07T10:49:08;16.10;99.90
15717;DHT22;7960;50.908;4.204;2023-05-07T10:51:37;16.00;99.90
15717;DHT22;7960;50.908;4.204;2023-05-07T10:54:22;16.00;99.90
15717;DHT22;7960;50.908;4.204;2023-05-07T10:56:52;16.00;99.90
15717;DHT22;7960;50.908;4.204;2023-05-07T10:59:34;16.10;99.90
15717;DHT22;7960;50.908;4.204;2023-05-07T11:02:09;16.30;99.90
15717;DHT22;7960;50.908;4.204;2023-05-07T11:04:37;16.30;99.90
15717;DHT22;7960;50.908;4.204;2023-05-07T11:10:08;16.40;99.90
15717;DHT22;7960;50.908;4.204;2023-05-07T11:12:51;16.60;99.90
15717;DHT22;7960;50.908;4.204;2023-05-07T11:15:36;16.80;99.90
15717;DHT22;7960;50.908;4.204;2023-05-07T11:18:05;16.60;99.90
15717;DHT22;7960;50.908;4.204;2023-05-07T11:21:02;16.70;99.90
15717;DHT22;7960;50.908;4.204;2023-05-07T11:26:47;16.60;99.90
15717;DHT22;7960;50.908;4.204;2023-05-07T11:29:16;16.80;99.90
15717;DHT22;7960;50.908;4.204;2023-05-07T11:31:43;16.60;99.90
15717;DHT22;7960;50.908;4.204;2023-05-07T11:34:12;16.60;99.90
15717;DHT22;7960;50.908;4.204;2023-05-07T11:36:42;16.50;99.90
15717;DHT22;7960;50.908;4.204;2023-05-07T11:39:30;16.70;99.90
15717;DHT22;7960;50.908;4.204;2023-05-07T11:41:59;16.70;99.90
15717;DHT22;7960;50.908;4.204;2023-05-07T11:44:42;17.00;99.90
15717;DHT22;7960;50.908;4.204;2023-05-07T11:47:10;17.20;99.90
15717;DHT22;7960;50.908;4.204;2023-05-07T11:49:38;17.20;99.90
15717;DHT22;7960;50.908;4.204;2023-05-07T11:52:06;17.00;99.90
15717;DHT22;7960;50.908;4.204;2023-05-07T11:54:35;17.00;99.90
15717;DHT22;7960;50.908;4.204;2023-05-07T11:57:03;16.80;99.90
15717;DHT22;7960;50.908;4.204;2023-05-07T11:59:38;16.80;99.90
15717;DHT22;7960;50.908;4.204;2023-05-07T12:02:06;16.90;99.90
15717;DHT22;7960;50.908;4.204;2023-05-07T12:04:33;16.90;99.90
15717;DHT22;7960;50.908;4.204;2023-05-07T12:07:01;16.90;99.90
15717;DHT22;7960;50.908;4.204;2023-05-07T12:09:28;16.90;99.90
15717;DHT22;7960;50.908;4.204;2023-05-07T12:11:55;17.00;99.90
15717;DHT22;7960;50.908;4.204;2023-05-07T12:14:26;17.10;99.90
15717;DHT22;7960;50.908;4.204;2023-05-07T12:16:53;17.10;99.90
15717;DHT22;7960;50.908;4.204;2023-05-07T12:19:21;17.20;99.90
15717;DHT22;7960;50.908;4.204;2023-05-07T12:21:48;17.20;99.90
15717;DHT22;7960;50.908;4.204;2023-05-07T12:24:16;17.30;99.90
15717;DHT22;7960;50.908;4.204;2023-05-07T12:26:43;17.30;99.90
15717;DHT22;7960;50.908;4.204;2023-05-07T12:29:10;17.20;99.90
15717;DHT22;7960;50.908;4.204;2023-05-07T12:31:40;17.40;99.90
15717;DHT22;7960;50.908;4.204;2023-05-07T12:34:07;17.60;99.90
15717;DHT22;7960;50.908;4.204;2023-05-07T12:36:37;17.60;99.90
15717;DHT22;7960;50.908;4.204;2023-05-07T12:39:04;17.80;99.90
15717;DHT22;7960;50.908;4.204;2023-05-07T12:41:36;17.70;99.90
15717;DHT22;7960;50.908;4.204;2023-05-07T12:44:04;17.50;99.90
15717;DHT22;7960;50.908;4.204;2023-05-07T12:46:31;17.40;99.90
15717;DHT22;7960;50.908;4.204;2023-05-07T12:48:59;17.40;99.90
15717;DHT22;7960;50.908;4.204;2023-05-07T12:51:27;17.60;99.90
15717;DHT22;7960;50.908;4.204;2023-05-07T12:53:56;17.80;99.90
15717;DHT22;7960;50.908;4.204;2023-05-07T12:56:23;17.80;99.90
15717;DHT22;7960;50.908;4.204;2023-05-07T12:58:51;17.90;99.90
15717;DHT22;7960;50.908;4.204;2023-05-07T13:01:29;18.00;99.90
15717;DHT22;7960;50.908;4.204;2023-05-07T13:03:56;17.90;99.90
15717;DHT22;7960;50.908;4.204;2023-05-07T13:06:26;17.70;99.90
15717;DHT22;7960;50.908;4.204;2023-05-07T13:08:53;17.90;99.90
15717;DHT22;7960;50.908;4.204;2023-05-07T13:11:20;17.80;99.90
15717;DHT22;7960;50.908;4.204;2023-05-07T13:13:47;17.80;99.90
15717;DHT22;7960;50.908;4.204;2023-05-07T13:16:15;17.70;99.90
15717;DHT22;7960;50.908;4.204;2023-05-07T13:18:42;17.80;99.90
15717;DHT22;7960;50.908;4.204;2023-05-07T13:21:11;18.00;99.90
15717;DHT22;7960;50.908;4.204;2023-05-07T13:23:39;17.90;99.90
15717;DHT22;7960;50.908;4.204;2023-05-07T13:26:06;17.90;99.90
15717;DHT22;7960;50.908;4.204;2023-05-07T13:28:33;18.00;99.90
15717;DHT22;7960;50.908;4.204;2023-05-07T13:31:00;18.00;99.90
15717;DHT22;7960;50.908;4.204;2023-05-07T13:33:29;18.10;99.90
15717;DHT22;7960;50.908;4.204;2023-05-07T13:35:56;18.40;99.90
15717;DHT22;7960;50.908;4.204;2023-05-07T13:38:23;18.50;99.90
15717;DHT22;7960;50.908;4.204;2023-05-07T13:40:50;18.50;99.90
15717;DHT22;7960;50.908;4.204;2023-05-07T13:43:17;18.50;99.90
15717;DHT22;7960;50.908;4.204;2023-05-07T13:45:44;18.30;99.90
15717;DHT22;7960;50.908;4.204;2023-05-07T13:48:11;18.20;99.90
15717;DHT22;7960;50.908;4.204;2023-05-07T13:50:39;18.20;99.90
15717;DHT22;7960;50.908;4.204;2023-05-07T13:53:07;18.30;99.90
15717;DHT22;7960;50.908;4.204;2023-05-07T13:55:34;18.50;99.90
15717;DHT22;7960;50.908;4.204;2023-05-07T13:58:02;18.60;99.90
15717;DHT22;7960;50.908;4.204;2023-05-07T14:00:29;18.60;99.90
15717;DHT22;7960;50.908;4.204;2023-05-07T14:02:56;18.60;99.90
15717;DHT22;7960;50.908;4.204;2023-05-07T14:05:23;18.60;99.90
15717;DHT22;7960;50.908;4.204;2023-05-07T14:07:52;18.60;99.90
15717;DHT22;7960;50.908;4.204;2023-05-07T14:10:19;18.50;99.90
15717;DHT22;7960;50.908;4.204;2023-05-07T14:12:46;18.40;99.90
15717;DHT22;7960;50.908;4.204;2023-05-07T14:15:14;18.40;99.90
15717;DHT22;7960;50.908;4.204;2023-05-07T14:17:41;18.50;99.90
15717;DHT22;7960;50.908;4.204;2023-05-07T14:20:09;18.30;99.90
15717;DHT22;7960;50.908;4.204;2023-05-07T14:22:36;18.20;99.90
15717;DHT22;7960;50.908;4.204;2023-05-07T14:25:06;18.40;99.90
15717;DHT22;7960;50.908;4.204;2023-05-07T14:27:33;18.50;99.90
15717;DHT22;7960;50.908;4.204;2023-05-07T14:30:00;18.40;99.90
15717;DHT22;7960;50.908;4.204;2023-05-07T14:32:27;18.60;99.90
15717;DHT22;7960;50.908;4.204;2023-05-07T14:34:54;18.70;99.90
15717;DHT22;7960;50.908;4.204;2023-05-07T14:37:21;18.70;99.90
15717;DHT22;7960;50.908;4.204;2023-05-07T14:39:48;18.80;99.90
15717;DHT22;7960;50.908;4.204;2023-05-07T14:42:16;18.70;99.90
15717;DHT22;7960;50.908;4.204;2023-05-07T14:44:44;18.80;99.90
15717;DHT22;7960;50.908;4.204;2023-05-07T14:47:12;18.70;99.90
15717;DHT22;7960;50.908;4.204;2023-05-07T14:49:39;18.70;99.90
15717;DHT22;7960;50.908;4.204;2023-05-07T14:52:06;18.80;99.90
15717;DHT22;7960;50.908;4.204;2023-05-07T14:54:36;18.80;99.90
15717;DHT22;7960;50.908;4.204;2023-05-07T14:57:05;18.90;99.90
15717;DHT22;7960;50.908;4.204;2023-05-07T14:59:33;18.90;99.90
15717;DHT22;7960;50.908;4.204;2023-05-07T15:02:00;19.00;99.90
15717;DHT22;7960;50.908;4.204;2023-05-07T15:04:27;19.10;99.90
15717;DHT22;7960;50.908;4.204;2023-05-07T15:06:54;18.90;99.90
15717;DHT22;7960;50.908;4.204;2023-05-07T15:09:21;18.70;99.90
15717;DHT22;7960;50.908;4.204;2023-05-07T15:11:48;18.90;99.90
15717;DHT22;7960;50.908;4.204;2023-05-07T15:14:15;18.80;99.90
15717;DHT22;7960;50.908;4.204;2023-05-07T15:16:43;18.80;99.90
15717;DHT22;7960;50.908;4.204;2023-05-07T15:19:10;18.90;99.90
15717;DHT22;7960;50.908;4.204;2023-05-07T15:21:37;18.90;99.90
15717;DHT22;7960;50.908;4.204;2023-05-07T15:24:05;18.70;99.90
15717;DHT22;7960;50.908;4.204;2023-05-07T15:26:32;18.70;99.90
15717;DHT22;7960;50.908;4.204;2023-05-07T15:28:59;18.80;99.90
15717;DHT22;7960;50.908;4.204;2023-05-07T15:31:28;18.70;99.90
15717;DHT22;7960;50.908;4.204;2023-05-07T15:33:57;18.60;99.90
15717;DHT22;7960;50.908;4.204;2023-05-07T15:36:24;18.40;99.90
15717;DHT22;7960;50.908;4.204;2023-05-07T15:38:50;18.40;99.90
15717;DHT22;7960;50.908;4.204;2023-05-07T15:41:17;18.40;99.90
15717;DHT22;7960;50.908;4.204;2023-05-07T15:43:46;18.40;99.90
15717;DHT22;7960;50.908;4.204;2023-05-07T15:46:17;18.30;99.90
15717;DHT22;7960;50.908;4.204;2023-05-07T15:48:45;18.50;99.90
15717;DHT22;7960;50.908;4.204;2023-05-07T15:51:14;18.70;99.90
15717;DHT22;7960;50.908;4.204;2023-05-07T15:53:41;18.80;99.90
15717;DHT22;7960;50.908;4.204;2023-05-07T15:56:08;18.90;99.90